National Weather Service Raw Text Product

Displaying AFOS PIL: TAFMCW Received: 2018-03-08 17:38 UTC


052 
FTUS43 KDMX 081738
TAFMCW
TAF
KMCW 081738Z 0818/0918 30006KT P6SM SKC
     FM090900 06004KT P6SM SCT100
     FM091400 10005KT P6SM BKN100=